Time;durP1;ratioP1;P1;durP2;ratioP2;P2;SDS_P1;SDS_P2;PMS_P1;PMS_P2;Temp;Humidity;BMP_temperature;BMP_pressure;BME280_temperature;BME280_humidity;BME280_pressure;Samples;Min_cycle;Max_cycle;Signal;HPM_P1;HPM_P2
2022/07/13 00:01:45;;;;;;;58.47;40.58;;;;;;;31.18;81.28;97304.78;5014584;28;20069;-68
2022/07/13 00:04:40;;;;;;;65.53;41.53;;;;;;;31.29;81.06;97322.28;5005238;28;20112;-69
2022/07/13 00:07:16;;;;;;;63.75;40.97;;;;;;;31.36;80.85;97327.09;5010275;28;20103;-68
2022/07/13 00:10:05;;;;;;;61.45;41.75;;;;;;;31.43;80.14;97329.91;5016836;28;20103;-68
2022/07/13 00:13:00;;;;;;;64.35;44.90;;;;;;;30.89;82.16;97334.22;5013602;28;20617;-68
2022/07/13 00:15:48;;;;;;;63.35;42.78;;;;;;;30.90;80.75;97336.66;5012884;28;20073;-68
2022/07/13 00:18:37;;;;;;;68.65;45.60;;;;;;;30.60;81.73;97347.81;5007350;28;20115;-68
2022/07/13 00:21:26;;;;;;;69.63;44.75;;;;;;;30.53;81.12;97348.50;4995449;28;20053;-68
2022/07/13 00:24:15;;;;;;;72.53;45.47;;;;;;;30.46;82.37;97354.00;4985035;28;20082;-69
2022/07/13 00:26:57;;;;;;;74.38;47.85;;;;;;;30.35;83.06;97359.41;5006811;28;20049;-69
2022/07/13 00:29:46;;;;;;;55.58;36.75;;;;;;;30.06;78.80;97358.25;5010804;28;20045;-72
2022/07/13 00:32:28;;;;;;;37.80;27.35;;;;;;;29.59;77.34;97345.75;5006429;28;20377;-68
2022/07/13 00:35:18;;;;;;;34.25;22.20;;;;;;;29.66;76.75;97343.88;4997744;28;20081;-68
2022/07/13 00:38:00;;;;;;;33.90;21.87;;;;;;;29.57;75.00;97348.09;4987553;28;20077;-68
2022/07/13 00:40:49;;;;;;;29.52;20.33;;;;;;;29.51;76.11;97344.84;4989056;28;20038;-68
2022/07/13 00:43:32;;;;;;;31.50;21.05;;;;;;;29.65;77.89;97339.50;5026892;28;20052;-68
2022/07/13 00:46:21;;;;;;;31.08;21.48;;;;;;;29.70;79.33;97346.69;5007263;28;20053;-68
2022/07/13 00:49:04;;;;;;;37.55;24.88;;;;;;;29.84;79.19;97340.56;5008847;28;20057;-68
2022/07/13 00:51:54;;;;;;;36.35;24.20;;;;;;;29.89;80.49;97354.06;4995529;28;20057;-68
2022/07/13 00:54:50;;;;;;;37.67;26.85;;;;;;;29.70;80.88;97351.44;5007940;28;20095;-68
2022/07/13 00:57:28;;;;;;;38.80;28.10;;;;;;;29.59;81.58;97341.00;5014073;28;20053;-68
2022/07/13 01:00:23;;;;;;;44.55;29.17;;;;;;;29.69;82.16;97331.25;5013942;28;20053;-68
2022/07/13 01:02:59;;;;;;;48.58;29.98;;;;;;;29.98;82.04;97332.47;5012325;28;20111;-67
2022/07/13 01:05:54;;;;;;;49.70;31.27;;;;;;;30.24;81.49;97330.78;5010635;28;20065;-67
2022/07/13 01:08:30;;;;;;;48.60;32.15;;;;;;;29.99;80.90;97336.03;5016797;28;20477;-68
2022/07/13 01:11:26;;;;;;;46.75;31.33;;;;;;;29.85;81.67;97342.19;5016041;28;20520;-68
2022/07/13 01:14:15;;;;;;;46.47;32.47;;;;;;;29.83;81.56;97347.28;5013944;28;20053;-68
2022/07/13 01:17:06;;;;;;;47.55;31.58;;;;;;;29.81;82.64;97347.66;5017769;28;20048;-68
2022/07/13 01:19:50;;;;;;;50.17;31.30;;;;;;;30.10;81.22;97341.69;5015976;28;20056;-68
2022/07/13 01:22:52;;;;;;;44.90;30.95;;;;;;;30.05;81.69;97340.84;4998369;28;20057;-68
2022/07/13 01:25:41;;;;;;;41.65;28.73;;;;;;;30.23;79.13;97341.06;4998573;28;20053;-68
2022/07/13 01:28:23;;;;;;;40.17;27.95;;;;;;;29.99;79.73;97336.03;5010365;28;20464;-67
2022/07/13 01:31:12;;;;;;;37.83;26.38;;;;;;;29.61;81.58;97337.88;5013019;28;20133;-68
2022/07/13 01:33:54;;;;;;;41.70;28.07;;;;;;;29.73;81.93;97329.38;4998958;28;20063;-68
2022/07/13 01:36:46;;;;;;;41.33;28.05;;;;;;;29.88;80.75;97318.50;5013924;28;20064;-70
2022/07/13 01:39:34;;;;;;;42.17;27.35;;;;;;;29.78;81.76;97325.50;4996528;28;20049;-69
2022/07/13 01:42:17;;;;;;;36.30;27.45;;;;;;;29.81;81.92;97336.59;5013289;28;20073;-67
2022/07/13 01:45:06;;;;;;;38.05;27.05;;;;;;;29.91;81.26;97329.59;5013572;28;20493;-67
2022/07/13 01:47:51;;;;;;;40.35;29.20;;;;;;;29.75;80.75;97343.63;4989769;28;20046;-68
2022/07/13 01:50:39;;;;;;;41.03;27.67;;;;;;;30.02;79.92;97346.34;4969698;28;20052;-68
2022/07/13 01:53:21;;;;;;;41.47;28.05;;;;;;;29.67;80.84;97348.25;4961349;28;20069;-69
2022/07/13 01:56:10;;;;;;;48.65;30.17;;;;;;;29.58;80.59;97350.47;4993174;28;20057;-68
2022/07/13 01:58:53;;;;;;;41.95;28.42;;;;;;;29.83;80.50;97347.28;4997639;28;20046;-68
2022/07/13 02:01:44;;;;;;;42.85;29.90;;;;;;;29.85;80.35;97342.97;4987465;28;20092;-68
2022/07/13 02:04:25;;;;;;;51.58;32.20;;;;;;;29.67;81.69;97355.72;5013210;28;20794;-67
2022/07/13 02:07:14;;;;;;;56.33;34.35;;;;;;;29.79;81.19;97358.31;5008062;28;20057;-68
2022/07/13 02:09:56;;;;;;;46.20;31.20;;;;;;;29.86;81.33;97361.13;4981261;28;20723;-68
2022/07/13 02:12:52;;;;;;;51.03;34.88;;;;;;;29.90;81.47;97372.25;4994665;28;20049;-68
2022/07/13 02:15:41;;;;;;;52.78;34.83;;;;;;;29.79;81.38;97379.59;5009403;28;20627;-68
2022/07/13 02:18:31;;;;;;;55.47;35.72;;;;;;;29.96;81.17;97386.56;5003956;28;20124;-68
2022/07/13 02:21:13;;;;;;;60.20;37.28;;;;;;;29.97;80.74;97390.94;5015217;28;20068;-68
2022/07/13 02:24:02;;;;;;;55.00;36.97;;;;;;;29.89;80.72;97397.53;5001021;28;20045;-70
2022/07/13 02:26:46;;;;;;;;;;;;;;;29.80;80.67;97406.88;5009310;28;20045;-67
2022/07/13 02:29:34;;;;;;;60.40;37.47;;;;;;;29.92;80.76;97403.09;5013099;28;20590;-67
2022/07/13 02:32:23;;;;;;;58.92;38.60;;;;;;;30.35;80.69;97408.44;4980888;28;20045;-67
2022/07/13 02:35:12;;;;;;;62.22;40.83;;;;;;;30.44;80.68;97414.47;4992077;28;20116;-67
2022/07/13 02:37:54;;;;;;;63.55;42.40;;;;;;;30.02;80.53;97419.06;5007300;28;20061;-67
2022/07/13 02:40:43;;;;;;;62.72;41.30;;;;;;;30.20;80.46;97418.50;5006041;28;20107;-67
2022/07/13 02:43:25;;;;;;;70.03;43.85;;;;;;;30.48;80.71;97412.56;5012190;28;20049;-67
2022/07/13 02:46:14;;;;;;;67.30;43.17;;;;;;;30.47;80.17;97410.94;5008009;28;20668;-67
2022/07/13 02:48:56;;;;;;;63.67;41.42;;;;;;;30.58;79.52;97406.31;5026499;28;20053;-67
2022/07/13 02:51:45;;;;;;;62.15;41.05;;;;;;;30.67;79.56;97396.91;5006422;28;20128;-67
2022/07/13 02:54:27;;;;;;;59.78;40.60;;;;;;;30.64;79.68;97388.19;4969082;28;21523;-67
2022/07/13 02:57:18;;;;;;;59.70;38.70;;;;;;;30.66;79.42;97403.63;4986453;28;20054;-67
2022/07/13 03:00:07;;;;;;;58.72;40.97;;;;;;;30.51;80.41;97399.91;4984878;28;20794;-67
2022/07/13 03:02:55;;;;;;;54.88;39.30;;;;;;;30.15;81.10;97411.34;4985440;28;20056;-67
2022/07/13 03:05:44;;;;;;;55.30;39.50;;;;;;;30.18;81.03;97401.47;4986055;28;20058;-67
2022/07/13 03:08:28;;;;;;;54.90;39.90;;;;;;;30.26;81.21;97401.16;4984082;28;20054;-66
2022/07/13 03:11:18;;;;;;;56.45;38.83;;;;;;;30.30;81.92;97400.44;4984862;28;20291;-67
2022/07/13 03:14:12;;;;;;;58.60;39.25;;;;;;;30.46;80.96;97403.81;4983163;28;20066;-67
2022/07/13 03:17:02;;;;;;;60.22;39.92;;;;;;;30.51;80.83;97417.31;4979756;28;20046;-67
2022/07/13 03:19:51;;;;;;;57.78;40.47;;;;;;;30.54;80.92;97416.56;4981836;28;20070;-68
2022/07/13 03:22:33;;;;;;;58.03;40.88;;;;;;;30.48;81.11;97423.63;4966003;28;20050;-67
2022/07/13 03:25:22;;;;;;;57.72;40.47;;;;;;;30.68;81.08;97426.22;5002299;28;20133;-67
2022/07/13 03:28:04;;;;;;;58.88;39.50;;;;;;;30.86;80.40;97421.66;4985096;28;20053;-68
2022/07/13 03:30:53;;;;;;;56.25;38.88;;;;;;;31.06;79.99;97418.72;4987893;28;20426;-68
2022/07/13 03:33:35;;;;;;;55.70;38.25;;;;;;;31.17;79.02;97414.06;4984137;28;20057;-68
2022/07/13 03:36:25;;;;;;;52.40;37.65;;;;;;;30.92;79.84;97416.59;4985670;28;20170;-68
2022/07/13 03:39:14;;;;;;;57.90;39.72;;;;;;;31.20;80.39;97400.25;4984644;28;20050;-68
2022/07/13 03:41:57;;;;;;;52.00;36.88;;;;;;;31.23;80.40;97390.34;4987967;28;20057;-68
2022/07/13 03:44:52;;;;;;;55.80;37.33;;;;;;;30.97;80.75;97383.78;4990199;28;20074;-68
2022/07/13 03:47:28;;;;;;;50.03;36.08;;;;;;;31.01;80.68;97379.09;4987879;28;20046;-68
2022/07/13 03:50:17;;;;;;;47.40;34.72;;;;;;;31.13;79.86;97380.00;4988110;28;20064;-68
2022/07/13 03:53:07;;;;;;;51.05;34.75;;;;;;;30.98;79.59;97396.47;5004847;28;20046;-68
2022/07/13 03:55:49;;;;;;;55.33;35.20;;;;;;;30.93;79.43;97394.03;5004472;28;20049;-68
2022/07/13 03:58:39;;;;;;;44.72;33.50;;;;;;;30.74;80.23;97397.78;5004542;28;20081;-68
2022/07/13 04:01:21;;;;;;;45.93;32.37;;;;;;;31.22;79.15;97391.53;4987844;28;20080;-67
2022/07/13 04:04:10;;;;;;;47.17;32.90;;;;;;;31.01;78.52;97405.97;4986988;28;20093;-68
2022/07/13 04:06:54;;;;;;;44.70;32.85;;;;;;;31.03;79.11;97404.44;4987428;28;20111;-66
2022/07/13 04:09:45;;;;;;;46.05;32.72;;;;;;;31.20;78.54;97402.19;4987689;28;20045;-68
2022/07/13 04:12:21;;;;;;;38.03;31.43;;;;;;;31.59;76.91;97398.97;4988835;28;20054;-68
2022/07/13 04:15:11;;;;;;;43.58;32.00;;;;;;;31.74;76.38;97406.22;4990130;28;20777;-68
2022/07/13 04:17:53;;;;;;;46.20;32.60;;;;;;;32.39;75.72;97401.78;4991919;28;20112;-67
2022/07/13 04:20:47;;;;;;;36.25;29.02;;;;;;;32.67;73.37;97408.66;4992256;28;20140;-67
2022/07/13 04:23:23;;;;;;;33.60;27.95;;;;;;;33.12;71.22;97416.72;4991405;28;20157;-68
2022/07/13 04:26:20;;;;;;;31.38;27.25;;;;;;;33.34;70.12;97423.06;4991907;28;20493;-67
2022/07/13 04:28:55;;;;;;;31.15;27.00;;;;;;;33.42;70.16;97426.63;4991816;28;20092;-67
2022/07/13 04:31:46;;;;;;;36.50;26.60;;;;;;;33.18;69.63;97429.03;4992938;28;20133;-66
2022/07/13 04:34:28;;;;;;;34.33;26.38;;;;;;;33.65;67.75;97426.25;4984363;28;20046;-67
2022/07/13 04:37:24;;;;;;;29.75;25.08;;;;;;;33.90;67.95;97427.00;4990973;28;20068;-66
2022/07/13 04:40:00;;;;;;;31.70;25.70;;;;;;;34.03;67.33;97426.56;5007876;28;20046;-67
2022/07/13 04:42:57;;;;;;;32.28;26.33;;;;;;;34.29;66.86;97426.13;4985880;28;20104;-67
2022/07/13 04:45:34;;;;;;;29.65;25.35;;;;;;;34.73;64.87;97426.75;4986893;28;20481;-67
2022/07/13 04:48:29;;;;;;;31.77;26.63;;;;;;;34.28;65.40;97424.56;4989031;28;20058;-69
2022/07/13 04:51:05;;;;;;;32.40;25.73;;;;;;;34.65;66.56;97423.19;4988613;28;20050;-69
2022/07/13 04:54:02;;;;;;;31.77;25.77;;;;;;;34.48;64.59;97410.91;4989276;28;20042;-69
2022/07/13 04:56:38;;;;;;;29.35;23.95;;;;;;;35.08;63.36;97416.56;4987890;28;20054;-68
2022/07/13 04:59:33;;;;;;;;;;;;;;;34.73;63.54;97410.03;5015255;28;20149;-70
2022/07/13 05:02:09;;;;;;;31.33;24.52;;;;;;;34.73;63.45;97420.38;4996511;28;20420;-70
2022/07/13 05:05:04;;;;;;;36.63;26.92;;;;;;;34.88;63.75;97428.25;5002731;28;20042;-70
2022/07/13 05:07:40;;;;;;;34.28;28.00;;;;;;;34.84;64.34;97435.84;4957825;28;20050;-70
2022/07/13 05:10:30;;;;;;;31.35;26.48;;;;;;;35.06;63.71;97432.91;5005483;28;20152;-69
2022/07/13 05:13:13;;;;;;;31.83;26.95;;;;;;;35.40;63.84;97440.66;4972803;28;20042;-70
2022/07/13 05:16:07;;;;;;;30.30;26.85;;;;;;;35.46;63.41;97450.19;4989684;28;20053;-71
2022/07/13 05:18:57;;;;;;;35.85;27.88;;;;;;;34.55;62.95;97451.09;4985038;28;20052;-70
2022/07/13 05:21:44;;;;;;;34.08;29.08;;;;;;;34.78;62.68;97434.69;5005212;28;20081;-69
2022/07/13 05:24:33;;;;;;;35.08;29.17;;;;;;;34.88;63.02;97439.41;4986466;28;20050;-69
2022/07/13 05:27:15;;;;;;;35.65;27.25;;;;;;;34.99;62.13;97444.13;5016715;28;20096;-71
2022/07/13 05:30:04;;;;;;;36.75;27.02;;;;;;;34.99;62.90;97446.94;5003305;28;20041;-71
2022/07/13 05:32:47;;;;;;;37.05;28.17;;;;;;;34.85;62.91;97439.41;4989529;28;20060;-72
2022/07/13 05:35:37;;;;;;;37.58;29.30;;;;;;;33.81;64.75;97428.63;4990943;28;20049;-72
2022/07/13 05:38:20;;;;;;;34.00;26.67;;;;;;;34.65;63.74;97419.59;5001920;28;20059;-69
2022/07/13 05:41:09;;;;;;;30.85;26.48;;;;;;;34.97;61.97;97429.78;5002529;28;20045;-69
2022/07/13 05:43:52;;;;;;;32.90;27.58;;;;;;;34.74;62.67;97433.09;5004404;28;20689;-69
2022/07/13 05:46:43;;;;;;;33.22;26.85;;;;;;;35.31;61.41;97427.19;5003642;28;20045;-69
2022/07/13 05:49:26;;;;;;;38.17;28.65;;;;;;;35.71;61.19;97432.44;5021570;28;20107;-68
2022/07/13 05:52:17;;;;;;;34.80;27.65;;;;;;;35.54;62.17;97440.56;4996261;28;20062;-68
2022/07/13 05:54:59;;;;;;;35.25;26.90;;;;;;;35.34;60.21;97448.69;5006056;28;20068;-68
2022/07/13 05:57:48;;;;;;;28.73;24.88;;;;;;;35.60;59.49;97427.75;5014911;28;20743;-68
2022/07/13 06:00:37;;;;;;;31.98;26.80;;;;;;;35.58;58.07;97424.56;5003710;28;20053;-68
2022/07/13 06:03:27;;;;;;;31.40;25.10;;;;;;;35.98;58.39;97427.81;5021101;28;20667;-70
2022/07/13 06:06:08;;;;;;;33.63;26.85;;;;;;;35.80;58.96;97418.81;4992024;28;20047;-74
2022/07/13 06:08:58;;;;;;;33.15;26.65;;;;;;;35.52;60.34;97409.47;4983805;28;20368;-72
2022/07/13 06:11:39;;;;;;;32.63;26.08;;;;;;;36.02;59.13;97409.00;5011595;28;20046;-73
2022/07/13 06:14:36;;;;;;;33.95;25.23;;;;;;;35.88;57.88;97395.19;5022882;28;20069;-73
2022/07/13 06:17:30;;;;;;;30.45;24.90;;;;;;;36.29;57.40;97394.34;5006626;28;20060;-73
2022/07/13 06:20:19;;;;;;;29.33;24.40;;;;;;;36.39;58.70;97387.03;5006070;28;20052;-77
2022/07/13 06:23:11;;;;;;;26.73;22.92;;;;;;;36.45;57.00;97396.53;5013088;28;20418;-74
2022/07/13 06:25:55;;;;;;;26.63;22.88;;;;;;;36.67;58.57;97390.69;5019154;28;20612;-74
2022/07/13 06:28:44;;;;;;;33.10;25.67;;;;;;;35.88;55.84;97392.41;5010928;28;20037;-74
2022/07/13 06:31:25;;;;;;;31.58;23.60;;;;;;;35.94;57.82;97395.53;5013928;28;20049;-76
2022/07/13 06:34:14;;;;;;;35.45;27.77;;;;;;;35.75;59.26;97400.53;5015350;28;20057;-71
2022/07/13 06:36:56;;;;;;;33.50;27.33;;;;;;;35.92;57.42;97403.53;5005851;28;20141;-73
2022/07/13 06:40:05;;;;;;;33.58;28.80;;;;;;;35.56;59.64;97415.00;5007887;28;20138;-75
2022/07/13 06:42:54;;;;;;;38.10;28.83;;;;;;;35.95;58.23;97413.88;5014399;28;20594;-74
2022/07/13 06:45:43;;;;;;;35.78;28.73;;;;;;;36.16;60.31;97418.44;5003539;28;20718;-72
2022/07/13 06:48:25;;;;;;;40.28;31.25;;;;;;;35.89;57.98;97418.34;5011292;28;20064;-73
2022/07/13 06:51:14;;;;;;;35.30;28.90;;;;;;;36.34;59.10;97430.19;5009210;28;20049;-73
2022/07/13 06:53:56;;;;;;;32.85;27.95;;;;;;;36.45;57.54;97439.22;5012701;28;20116;-72
2022/07/13 06:56:46;;;;;;;39.30;29.65;;;;;;;36.61;56.82;97432.25;5009104;28;20872;-71
2022/07/13 06:59:27;;;;;;;32.95;27.27;;;;;;;36.63;56.77;97436.22;5005959;28;20690;-74
2022/07/13 07:02:16;;;;;;;36.05;29.80;;;;;;;35.87;57.99;97441.88;5005571;28;20053;-74
2022/07/13 07:04:59;;;;;;;38.67;31.38;;;;;;;35.92;59.50;97443.41;5002380;28;20054;-71
2022/07/13 07:08:03;;;;;;;36.53;29.77;;;;;;;35.80;59.26;97453.09;5001729;28;20057;-75
2022/07/13 07:10:57;;;;;;;37.03;30.42;;;;;;;35.75;59.30;97449.94;5008996;28;20056;-74
2022/07/13 07:13:33;;;;;;;30.83;26.58;;;;;;;36.15;57.94;97433.59;5005624;28;20046;-75
2022/07/13 07:16:29;;;;;;;31.13;27.50;;;;;;;36.19;56.57;97437.16;5012613;28;20061;-73
2022/07/13 07:19:21;;;;;;;34.90;28.65;;;;;;;35.83;57.43;97462.66;5016884;28;20057;-75
2022/07/13 07:22:23;;;;;;;35.55;28.02;;;;;;;36.16;55.99;97463.91;5023926;28;20127;-72
2022/07/13 07:25:05;;;;;;;33.08;28.00;;;;;;;36.13;55.14;97458.34;5017291;28;20148;-75
2022/07/13 07:27:55;;;;;;;36.78;28.42;;;;;;;36.14;57.50;97443.19;5021172;28;20041;-73
2022/07/13 07:30:36;;;;;;;39.25;28.90;;;;;;;35.78;59.04;97444.34;5023456;28;20114;-74
2022/07/13 07:33:25;;;;;;;34.13;27.08;;;;;;;36.10;58.06;97436.84;5003890;28;20041;-73
2022/07/13 07:36:21;;;;;;;33.40;27.15;;;;;;;36.39;57.91;97429.75;5017712;28;20081;-72
2022/07/13 07:38:57;;;;;;;36.08;27.20;;;;;;;36.34;55.91;97424.59;4988614;28;20052;-72
2022/07/13 07:41:47;;;;;;;35.92;27.35;;;;;;;36.20;55.36;97424.78;5005485;28;20054;-71
2022/07/13 07:44:37;;;;;;;32.70;26.67;;;;;;;36.00;57.61;97433.75;5025763;28;20049;-72
2022/07/13 07:47:22;;;;;;;32.05;25.83;;;;;;;36.07;59.57;97436.44;5008767;28;21045;-74
2022/07/13 07:50:12;;;;;;;32.88;25.13;;;;;;;35.82;57.14;97445.09;5010555;28;20050;-71
2022/07/13 07:52:54;;;;;;;31.20;25.58;;;;;;;35.72;56.85;97481.50;5030591;28;20139;-76
2022/07/13 07:55:44;;;;;;;81.03;12.15;;;;;;;33.42;55.09;97513.66;5028448;28;20052;-76
2022/07/13 07:58:25;;;;;;;90.90;11.60;;;;;;;31.40;59.18;97535.84;5032102;28;20530;-75
2022/07/13 08:01:14;;;;;;;56.27;5.93;;;;;;;30.77;61.93;97543.81;4679691;28;10000603;-74
2022/07/13 08:03:56;;;;;;;49.72;4.97;;;;;;;30.13;63.71;97534.59;5014242;28;20664;-75
2022/07/13 08:06:49;;;;;;;38.53;3.92;;;;;;;29.84;63.73;97526.66;5032003;28;20052;-76
2022/07/13 08:09:30;;;;;;;20.17;4.63;;;;;;;29.67;64.84;97516.06;5026449;28;20046;-74
2022/07/13 08:12:20;;;;;;;21.20;3.78;;;;;;;29.27;67.01;97525.66;5031042;28;20141;-73
2022/07/13 08:15:01;;;;;;;10.60;3.42;;;;;;;28.82;71.50;97546.47;5029543;28;20528;-74
2022/07/13 08:17:57;;;;;;;17.52;4.63;;;;;;;28.06;74.99;97538.47;5004808;28;20050;-73
2022/07/13 08:20:45;;;;;;;11.73;4.68;;;;;;;27.52;78.49;97540.69;5009812;28;20160;-75
2022/07/13 08:23:54;;;;;;;12.38;5.00;;;;;;;27.27;81.26;97531.78;5033902;28;20118;-74
2022/07/13 08:26:36;;;;;;;12.32;5.07;;;;;;;27.04;83.35;97539.78;5001712;28;20513;-76
2022/07/13 08:29:25;;;;;;;16.77;6.00;;;;;;;26.97;83.67;97538.81;5015798;28;20131;-75
2022/07/13 08:32:14;;;;;;;15.27;6.35;;;;;;;26.97;84.93;97539.59;5028952;28;20134;-76
2022/07/13 08:41:11;;;;;;;13.13;4.63;;;;;;;27.04;85.28;97517.78;5023989;28;20782;-76
2022/07/13 08:43:53;;;;;;;11.75;4.25;;;;;;;26.91;84.55;97508.75;5022582;28;20128;-76
2022/07/13 08:46:42;;;;;;;12.20;5.80;;;;;;;26.90;85.31;97496.16;5004273;28;20065;-76
2022/07/13 08:49:26;;;;;;;12.93;5.03;;;;;;;27.01;85.50;97507.44;5006111;28;20052;-76
2022/07/13 08:52:15;;;;;;;13.68;5.15;;;;;;;27.15;84.32;97502.34;5013284;28;20481;-76
2022/07/13 08:54:59;;;;;;;12.95;5.47;;;;;;;27.33;83.68;97480.00;5015827;28;20045;-75
2022/07/13 08:57:47;;;;;;;9.48;4.85;;;;;;;27.33;83.23;97456.00;5019767;28;20053;-72
2022/07/13 09:00:37;;;;;;;11.40;4.68;;;;;;;27.40;84.28;97432.53;5009065;28;20073;-77
2022/07/13 09:03:27;;;;;;;12.63;5.20;;;;;;;27.44;82.13;97425.97;5019778;28;20151;-76
2022/07/13 09:06:09;;;;;;;13.20;5.25;;;;;;;27.35;81.14;97414.31;5028382;28;20068;-76
2022/07/13 09:08:58;;;;;;;11.23;5.22;;;;;;;27.49;81.97;97383.53;5028228;28;20469;-76
2022/07/13 09:11:40;;;;;;;9.50;5.10;;;;;;;27.63;82.36;97370.09;5012834;28;20249;-76
2022/07/13 09:14:32;;;;;;;12.27;5.45;;;;;;;28.26;81.58;97369.09;5014618;28;20420;-75
2022/07/13 09:17:39;;;;;;;13.15;7.43;;;;;;;27.78;81.40;97362.91;5011496;28;20073;-74
2022/07/13 09:20:35;;;;;;;10.00;4.68;;;;;;;27.91;80.19;97364.41;5020478;28;20593;-76
2022/07/13 09:23:30;;;;;;;13.38;5.07;;;;;;;28.04;78.88;97359.56;5006282;28;20061;-75
2022/07/13 09:26:18;;;;;;;10.32;4.78;;;;;;;28.12;80.79;97338.44;5011868;28;20459;-76
2022/07/13 09:29:01;;;;;;;10.90;5.43;;;;;;;28.45;78.57;97329.66;5027283;28;20524;-76
2022/07/13 09:32:01;;;;;;;8.85;5.25;;;;;;;28.15;79.05;97347.97;5032558;28;20056;-77
2022/07/13 09:34:54;;;;;;;9.00;4.50;;;;;;;28.56;78.56;97327.09;5028722;28;20045;-76
2022/07/13 09:37:46;;;;;;;9.00;4.75;;;;;;;28.48;77.80;97308.78;5026886;28;20045;-74
2022/07/13 09:40:28;;;;;;;8.68;4.60;;;;;;;28.41;77.16;97294.84;5020394;28;20051;-74
2022/07/13 09:46:35;;;;;;;9.35;4.45;;;;;;;28.12;78.52;97321.91;5023881;28;20835;-75
2022/07/13 09:49:11;;;;;;;11.00;4.45;;;;;;;28.04;79.28;97325.69;5007241;28;20057;-75
2022/07/13 09:52:08;;;;;;;10.40;4.80;;;;;;;28.06;79.17;97310.38;5035564;28;20045;-75
2022/07/13 09:54:48;;;;;;;12.40;5.22;;;;;;;28.05;77.87;97302.44;5022638;28;20045;-75
2022/07/13 09:57:52;;;;;;;14.65;5.32;;;;;;;28.09;78.59;97292.31;5027297;28;20049;-77
2022/07/13 10:00:37;;;;;;;7.97;4.88;;;;;;;27.99;78.19;97268.84;5026908;28;20107;-76
2022/07/13 10:03:34;;;;;;;10.65;5.57;;;;;;;28.06;77.34;97265.44;5024624;28;20525;-78
2022/07/13 10:06:13;;;;;;;11.57;5.10;;;;;;;28.08;78.55;97260.38;5024477;28;20053;-77
2022/07/13 10:09:02;;;;;;;9.98;4.68;;;;;;;28.00;79.05;97261.41;5024757;28;20149;-75
2022/07/13 10:11:44;;;;;;;12.35;4.57;;;;;;;28.10;79.99;97275.38;5019909;28;20133;-76
2022/07/13 10:14:41;;;;;;;10.48;4.20;;;;;;;28.14;79.27;97264.41;5016921;28;20052;-74
2022/07/13 10:17:25;;;;;;;8.45;4.60;;;;;;;28.08;78.24;97254.84;5026239;28;20052;-76
2022/07/13 10:20:27;;;;;;;5.28;3.17;;;;;;;28.20;78.32;97260.19;5018657;28;20065;-71
2022/07/13 10:23:37;;;;;;;9.10;3.83;;;;;;;27.99;79.72;97257.81;5010905;28;20073;-70
2022/07/13 10:26:30;;;;;;;11.63;4.03;;;;;;;27.86;80.41;97246.16;4989947;28;20056;-71
2022/07/13 10:29:15;;;;;;;7.75;3.95;;;;;;;27.94;80.31;97227.81;5006720;28;20506;-69
2022/07/13 10:32:11;;;;;;;9.85;4.10;;;;;;;27.64;79.93;97219.31;5010140;28;20096;-72
2022/07/13 10:35:12;;;;;;;8.77;4.40;;;;;;;27.52;80.13;97204.53;5008568;28;20080;-70
2022/07/13 10:37:56;;;;;;;10.77;4.40;;;;;;;28.13;79.31;97207.66;5010667;28;20536;-68
2022/07/13 10:40:52;;;;;;;12.13;5.15;;;;;;;28.02;79.88;97201.16;5008871;28;20486;-68
2022/07/13 10:43:28;;;;;;;13.10;6.05;;;;;;;28.20;79.91;97188.47;5008254;28;20572;-68
2022/07/13 10:46:54;;;;;;;12.00;5.57;;;;;;;28.18;81.11;97179.75;5000975;28;20046;-70
2022/07/13 10:49:37;;;;;;;11.32;5.80;;;;;;;28.02;78.31;97154.28;5012576;28;20057;-69
2022/07/13 10:52:26;;;;;;;10.05;5.90;;;;;;;28.17;78.67;97136.81;4978283;28;20057;-66
2022/07/13 10:55:14;;;;;;;8.07;5.07;;;;;;;28.31;77.50;97141.75;5003568;28;20552;-66
2022/07/13 10:58:33;;;;;;;9.23;5.05;;;;;;;28.54;77.35;97161.06;5014945;28;20045;-68
2022/07/13 11:01:45;;;;;;;13.05;5.70;;;;;;;28.62;77.25;97184.84;5002403;28;20126;-69
2022/07/13 11:04:47;;;;;;;11.85;6.10;;;;;;;28.80;77.99;97189.88;5011326;28;20057;-68
2022/07/13 11:07:53;;;;;;;8.05;5.13;;;;;;;28.79;77.21;97188.25;5001434;28;20056;-70
2022/07/13 11:10:34;;;;;;;13.10;4.43;;;;;;;28.89;75.79;97163.56;5000160;28;20045;-69
2022/07/13 11:13:34;;;;;;;10.82;4.35;;;;;;;29.20;76.30;97155.34;4999191;28;20053;-70
2022/07/13 11:16:45;;;;;;;9.00;5.22;;;;;;;29.12;76.25;97142.53;5008525;28;20448;-71
2022/07/13 11:19:57;;;;;;;10.07;5.40;;;;;;;29.05;77.10;97144.06;5007985;28;20379;-71
2022/07/13 11:26:23;;;;;;;10.68;5.95;;;;;;;29.07;76.75;97144.47;5025216;28;20485;-69
2022/07/13 11:29:27;;;;;;;8.43;5.32;;;;;;;28.96;75.75;97148.28;5024779;28;20534;-70
2022/07/13 11:32:22;;;;;;;12.73;5.38;;;;;;;29.07;74.80;97133.44;5014610;28;20065;-66
2022/07/13 11:35:12;;;;;;;10.30;5.45;;;;;;;29.16;76.51;97140.66;5023089;28;20119;-70
2022/07/13 11:37:56;;;;;;;10.30;6.45;;;;;;;28.96;77.87;97135.25;5014841;28;20108;-69
2022/07/13 11:40:44;;;;;;;15.55;7.05;;;;;;;29.14;77.68;97148.53;5031182;28;20141;-69
2022/07/13 11:43:39;;;;;;;11.88;7.97;;;;;;;29.11;76.38;97150.03;5013255;28;20067;-70
2022/07/13 11:46:23;;;;;;;17.67;8.52;;;;;;;29.08;75.59;97140.56;5015350;28;20056;-70
2022/07/13 11:49:18;;;;;;;18.83;8.60;;;;;;;29.31;75.66;97130.56;5026755;28;20084;-70
2022/07/13 11:51:54;;;;;;;15.07;9.00;;;;;;;29.51;77.00;97120.16;5024721;28;20714;-70
2022/07/13 11:55:05;;;;;;;13.82;8.93;;;;;;;29.55;77.76;97124.53;5022938;28;20613;-71
2022/07/13 11:57:45;;;;;;;15.47;8.67;;;;;;;29.44;77.46;97124.41;5028098;28;20490;-69
2022/07/13 12:00:35;;;;;;;13.20;8.55;;;;;;;29.20;78.50;97128.50;5027944;28;20053;-67
2022/07/13 12:03:19;;;;;;;16.23;8.90;;;;;;;28.99;78.23;97142.78;5029883;28;20057;-69
2022/07/13 12:06:11;;;;;;;16.75;10.45;;;;;;;29.15;77.89;97152.88;5031548;28;20073;-69
2022/07/13 12:08:55;;;;;;;15.32;8.77;;;;;;;29.05;78.80;97138.53;5030114;28;20060;-68
2022/07/13 12:11:45;;;;;;;14.90;9.23;;;;;;;29.12;78.43;97131.50;5014228;28;20049;-71
2022/07/13 12:14:35;;;;;;;16.63;8.68;;;;;;;29.21;78.85;97143.88;5028358;28;20049;-70
2022/07/13 12:17:18;;;;;;;20.77;9.90;;;;;;;29.35;78.61;97148.00;5023184;28;20061;-67
2022/07/13 12:20:22;;;;;;;24.77;10.93;;;;;;;29.41;78.03;97141.78;5029224;28;20049;-67
2022/07/13 12:23:13;;;;;;;21.52;9.77;;;;;;;29.22;78.51;97139.97;5016281;28;20060;-69
2022/07/13 12:26:13;;;;;;;20.15;10.32;;;;;;;29.32;79.23;97157.06;5019737;28;20041;-68
2022/07/13 12:28:49;;;;;;;18.75;9.15;;;;;;;29.13;77.70;97153.25;5022189;28;20053;-70
2022/07/13 12:31:48;;;;;;;27.25;12.00;;;;;;;29.05;77.73;97155.09;5016327;28;20053;-69
2022/07/13 12:34:30;;;;;;;15.25;9.45;;;;;;;29.27;76.87;97144.34;5022525;28;20176;-67
2022/07/13 12:37:33;;;;;;;20.13;9.55;;;;;;;29.44;77.82;97141.00;5025730;28;20052;-67
2022/07/13 12:40:49;;;;;;;14.57;8.95;;;;;;;29.42;77.43;97134.25;5024110;28;20069;-67
2022/07/13 12:43:37;;;;;;;13.48;8.68;;;;;;;29.41;77.58;97133.47;5026209;28;20156;-68
2022/07/13 12:46:19;;;;;;;19.17;8.80;;;;;;;29.39;78.25;97137.81;5003067;28;20135;-69
2022/07/13 12:49:08;;;;;;;18.98;9.63;;;;;;;29.54;77.95;97152.56;5025027;28;20140;-68
2022/07/13 12:51:58;;;;;;;16.75;8.93;;;;;;;29.60;77.77;97164.88;5027083;28;20045;-67
2022/07/13 12:54:53;;;;;;;16.65;9.32;;;;;;;29.53;78.53;97176.66;5025278;28;20041;-69
2022/07/13 12:57:41;;;;;;;19.98;9.40;;;;;;;29.45;78.63;97191.56;5029547;28;20068;-69
2022/07/13 13:00:26;;;;;;;12.82;9.35;;;;;;;29.63;78.66;97184.25;5026604;28;20049;-66
2022/07/13 13:03:14;;;;;;;19.48;10.20;;;;;;;29.56;78.15;97180.63;5017789;28;20626;-68
2022/07/13 13:05:56;;;;;;;19.88;10.95;;;;;;;29.55;77.51;97179.03;5024761;28;20430;-69
2022/07/13 13:08:45;;;;;;;19.23;10.23;;;;;;;29.49;78.14;97175.81;5024089;28;20053;-69
2022/07/13 13:11:44;;;;;;;17.83;10.18;;;;;;;29.40;79.10;97169.78;5024061;28;20072;-68
2022/07/13 13:14:20;;;;;;;19.08;10.23;;;;;;;29.55;78.78;97173.50;5009422;28;20543;-70